Time,TemperatureF,DewpointF,PressureIn,WindDirection,WindDirectionDegrees,WindSpeedMPH,WindSpeedGustMPH,Humidity,HourlyPrecipIn,Conditions,Clouds,dailyrainin,SoftwareType,DateUTC
2013-01-13 00:09:00,23.7,23.5,29.64,WNW,292,0.0,-999.0,99,-99.99,,,0.00,Acu-Link.com,2013-01-13 09:09:00,
2013-01-13 00:25:00,24.8,24.6,29.64,WNW,292,0.0,-999.0,99,-99.99,,,0.00,Acu-Link.com,2013-01-13 09:25:00,
2013-01-13 00:40:00,26.4,26.2,29.63,East,90,1.7,-999.0,99,-99.99,,,0.00,Acu-Link.com,2013-01-13 09:40:00,
2013-01-13 00:55:00,27.1,26.9,29.64,East,90,0.0,-999.0,99,-99.99,,,0.00,Acu-Link.com,2013-01-13 09:55:00,
2013-01-13 01:10:00,27.9,27.7,29.64,SSE,157,0.0,-999.0,99,-99.99,,,0.00,Acu-Link.com,2013-01-13 10:10:00,
2013-01-13 01:25:00,28.2,28.0,29.64,NW,315,2.7,-999.0,99,-99.99,,,0.00,Acu-Link.com,2013-01-13 10:25:00,
2013-01-13 01:40:00,28.8,28.6,29.64,ESE,112,1.7,-999.0,99,-99.99,,,0.00,Acu-Link.com,2013-01-13 10:40:00,
2013-01-13 01:55:00,28.8,28.6,29.65,ESE,112,0.0,-999.0,99,-99.99,,,0.00,Acu-Link.com,2013-01-13 10:55:00,
2013-01-13 02:10:00,28.8,28.6,29.65,ESE,112,1.7,-999.0,99,-99.99,,,0.00,Acu-Link.com,2013-01-13 11:10:00,
2013-01-13 02:26:00,29.1,28.9,29.65,WNW,292,1.7,-999.0,99,-99.99,,,0.00,Acu-Link.com,2013-01-13 11:26:00,
2013-01-13 02:41:00,29.8,29.6,29.65,West,270,1.7,-999.0,99,-99.99,,,0.00,Acu-Link.com,2013-01-13 11:41:00,
2013-01-13 02:56:00,30.0,29.8,29.62,West,270,0.0,-999.0,99,-99.99,,,0.00,Acu-Link.com,2013-01-13 11:56:00,
2013-01-13 03:11:00,30.6,30.4,29.64,West,270,1.7,-999.0,99,-99.99,,,0.00,Acu-Link.com,2013-01-13 12:11:00,
2013-01-13 03:26:00,30.4,30.2,29.65,West,270,0.0,-999.0,99,-99.99,,,0.00,Acu-Link.com,2013-01-13 12:26:00,
2013-01-13 03:41:00,30.6,30.4,29.65,West,270,0.0,-999.0,99,-99.99,,,0.00,Acu-Link.com,2013-01-13 12:41:00,
2013-01-13 03:56:00,30.2,30.0,29.65,West,270,0.0,-999.0,99,-99.99,,,0.00,Acu-Link.com,2013-01-13 12:56:00,
2013-01-13 04:11:00,30.2,30.0,29.66,West,270,0.0,-999.0,99,-99.99,,,0.00,Acu-Link.com,2013-01-13 13:11:00,
2013-01-13 04:26:00,30.2,30.0,29.66,West,270,0.0,-999.0,99,-99.99,,,0.00,Acu-Link.com,2013-01-13 13:26:00,
2013-01-13 04:42:00,30.2,30.0,29.67,West,270,0.0,-999.0,99,-99.99,,,0.00,Acu-Link.com,2013-01-13 13:42:00,
2013-01-13 04:57:00,30.2,30.0,29.67,West,270,0.0,-999.0,99,-99.99,,,0.00,Acu-Link.com,2013-01-13 13:57:00,
2013-01-13 05:12:00,30.6,30.4,29.68,West,270,0.0,-999.0,99,-99.99,,,0.00,Acu-Link.com,2013-01-13 14:12:00,
2013-01-13 05:27:00,30.7,30.5,29.68,West,270,0.0,-999.0,99,-99.99,,,0.00,Acu-Link.com,2013-01-13 14:27:00,
2013-01-13 05:42:00,31.3,31.1,29.69,West,270,0.0,-999.0,99,-99.99,,,0.00,Acu-Link.com,2013-01-13 14:42:00,
2013-01-13 05:57:00,31.3,31.1,29.66,West,270,0.0,-999.0,99,-99.99,,,0.00,Acu-Link.com,2013-01-13 14:57:00,
2013-01-13 06:12:00,31.5,31.3,29.69,West,270,0.0,-999.0,99,-99.99,,,0.00,Acu-Link.com,2013-01-13 15:12:00,
2013-01-13 06:27:00,31.6,31.4,29.69,SSE,157,2.2,-999.0,99,-99.99,,,0.00,Acu-Link.com,2013-01-13 15:27:00,
2013-01-13 06:42:00,31.6,31.4,29.67,SSE,157,0.0,-999.0,99,-99.99,,,0.00,Acu-Link.com,2013-01-13 15:42:00,
2013-01-13 06:57:00,31.8,31.6,29.67,ENE,67,0.0,-999.0,99,-99.99,,,0.00,Acu-Link.com,2013-01-13 15:57:00,
2013-01-13 07:13:00,31.8,31.6,29.66,WNW,292,2.2,-999.0,99,-99.99,,,0.00,Acu-Link.com,2013-01-13 16:13:00,
2013-01-13 07:28:00,32.4,32.2,29.66,WNW,292,0.0,-999.0,99,-99.99,,,0.00,Acu-Link.com,2013-01-13 16:28:00,
2013-01-13 07:43:00,32.0,31.8,29.65,WNW,292,0.0,-999.0,99,-99.99,,,0.00,Acu-Link.com,2013-01-13 16:43:00,
2013-01-13 07:58:00,32.0,31.8,29.66,WNW,292,0.0,-999.0,99,-99.99,,,0.00,Acu-Link.com,2013-01-13 16:58:00,
2013-01-13 08:13:00,31.8,31.6,29.67,WNW,292,0.0,-999.0,99,-99.99,,,0.00,Acu-Link.com,2013-01-13 17:13:00,
2013-01-13 08:28:00,31.8,31.6,29.66,WNW,292,0.0,-999.0,99,-99.99,,,0.00,Acu-Link.com,2013-01-13 17:28:00,
2013-01-13 08:43:00,31.6,31.4,29.67,WNW,292,0.0,-999.0,99,-99.99,,,0.00,Acu-Link.com,2013-01-13 17:43:00,
2013-01-13 08:58:00,31.5,31.3,29.67,WNW,292,0.0,-999.0,99,-99.99,,,0.00,Acu-Link.com,2013-01-13 17:58:00,
2013-01-13 09:13:00,31.5,31.3,29.66,WNW,292,0.0,-999.0,99,-99.99,,,0.00,Acu-Link.com,2013-01-13 18:13:00,
2013-01-13 09:29:00,31.3,31.1,29.66,WNW,292,0.0,-999.0,99,-99.99,,,0.00,Acu-Link.com,2013-01-13 18:29:00,
2013-01-13 09:44:00,31.1,30.9,29.66,WNW,292,0.0,-999.0,99,-99.99,,,0.00,Acu-Link.com,2013-01-13 18:44:00,
2013-01-13 09:59:00,30.9,30.7,29.66,WNW,292,0.0,-999.0,99,-99.99,,,0.00,Acu-Link.com,2013-01-13 18:59:00,
2013-01-13 10:14:00,31.1,30.9,29.68,WNW,292,0.0,-999.0,99,-99.99,,,0.00,Acu-Link.com,2013-01-13 19:14:00,
2013-01-13 10:29:00,31.1,30.9,29.67,WNW,292,0.0,-999.0,99,-99.99,,,0.00,Acu-Link.com,2013-01-13 19:29:00,
2013-01-13 10:45:00,31.1,30.9,29.67,WNW,292,0.0,-999.0,99,-99.99,,,0.00,Acu-Link.com,2013-01-13 19:45:00,
2013-01-13 11:00:00,30.9,30.7,29.68,WNW,292,0.0,-999.0,99,-99.99,,,0.00,Acu-Link.com,2013-01-13 20:00:00,
2013-01-13 11:16:00,30.7,30.5,29.68,WNW,292,0.0,-999.0,99,-99.99,,,0.00,Acu-Link.com,2013-01-13 20:16:00,
2013-01-13 11:31:00,30.4,30.2,29.67,WNW,292,0.0,-999.0,99,-99.99,,,0.00,Acu-Link.com,2013-01-13 20:31:00,
2013-01-13 11:46:00,29.8,29.6,29.67,WNW,292,0.0,-999.0,99,-99.99,,,0.00,Acu-Link.com,2013-01-13 20:46:00,
2013-01-13 12:01:00,29.7,29.5,29.66,WNW,292,0.0,-999.0,99,-99.99,,,0.00,Acu-Link.com,2013-01-13 21:01:00,
2013-01-13 12:16:00,29.3,29.1,29.67,WNW,292,0.0,-999.0,99,-99.99,,,0.00,Acu-Link.com,2013-01-13 21:16:00,
2013-01-13 12:31:00,29.3,29.1,29.66,WNW,292,0.0,-999.0,99,-99.99,,,0.00,Acu-Link.com,2013-01-13 21:31:00,
2013-01-13 12:46:00,29.1,28.9,29.67,WNW,292,0.0,-999.0,99,-99.99,,,0.00,Acu-Link.com,2013-01-13 21:46:00,
2013-01-13 13:01:00,28.9,28.7,29.66,WNW,292,0.0,-999.0,99,-99.99,,,0.00,Acu-Link.com,2013-01-13 22:01:00,
2013-01-13 13:16:00,29.1,28.9,29.65,WNW,292,0.0,-999.0,99,-99.99,,,0.00,Acu-Link.com,2013-01-13 22:16:00,
2013-01-13 13:32:00,29.1,28.9,29.66,WNW,292,0.0,-999.0,99,-99.99,,,0.00,Acu-Link.com,2013-01-13 22:32:00,
2013-01-13 13:47:00,28.8,28.6,29.65,WNW,292,0.0,-999.0,99,-99.99,,,0.00,Acu-Link.com,2013-01-13 22:47:00,
2013-01-13 14:02:00,28.8,28.6,29.66,WNW,292,0.0,-999.0,99,-99.99,,,0.00,Acu-Link.com,2013-01-13 23:02:00,
2013-01-13 14:17:00,28.6,28.4,29.66,WNW,292,0.0,-999.0,99,-99.99,,,0.00,Acu-Link.com,2013-01-13 23:17:00,
2013-01-13 14:32:00,28.2,28.0,29.65,WNW,292,0.0,-999.0,99,-99.99,,,0.00,Acu-Link.com,2013-01-13 23:32:00,
2013-01-13 14:47:00,27.9,27.7,29.65,WNW,292,0.0,-999.0,99,-99.99,,,0.00,Acu-Link.com,2013-01-13 23:47:00,
2013-01-13 15:02:00,27.7,27.5,29.65,WNW,292,0.0,-999.0,99,-99.99,,,0.00,Acu-Link.com,2013-01-14 00:02:00,
2013-01-13 15:17:00,27.7,27.5,29.64,WNW,292,0.0,-999.0,99,-99.99,,,0.00,Acu-Link.com,2013-01-14 00:17:00,
2013-01-13 15:32:00,27.7,27.5,29.64,WNW,292,0.0,-999.0,99,-99.99,,,0.00,Acu-Link.com,2013-01-14 00:32:00,
2013-01-13 15:48:00,27.5,27.3,29.64,WNW,292,0.0,-999.0,99,-99.99,,,0.00,Acu-Link.com,2013-01-14 00:48:00,
2013-01-13 16:03:00,27.5,27.3,29.63,WNW,292,0.0,-999.0,99,-99.99,,,0.00,Acu-Link.com,2013-01-14 01:03:00,
2013-01-13 16:18:00,27.3,27.1,29.63,WNW,292,0.0,-999.0,99,-99.99,,,0.00,Acu-Link.com,2013-01-14 01:18:00,
2013-01-13 16:33:00,27.3,27.1,29.64,WNW,292,0.0,-999.0,99,-99.99,,,0.00,Acu-Link.com,2013-01-14 01:33:00,
2013-01-13 16:48:00,27.3,27.1,29.63,WNW,292,0.0,-999.0,99,-99.99,,,0.00,Acu-Link.com,2013-01-14 01:48:00,
2013-01-13 17:03:00,27.5,27.3,29.63,WNW,292,0.0,-999.0,99,-99.99,,,0.00,Acu-Link.com,2013-01-14 02:03:00,
2013-01-13 17:18:00,27.5,27.3,29.62,WNW,292,0.0,-999.0,99,-99.99,,,0.00,Acu-Link.com,2013-01-14 02:18:00,
2013-01-13 17:34:00,27.5,27.3,29.61,WNW,292,0.0,-999.0,99,-99.99,,,0.00,Acu-Link.com,2013-01-14 02:34:00,
2013-01-13 17:49:00,27.5,27.3,29.61,WNW,292,0.0,-999.0,99,-99.99,,,0.00,Acu-Link.com,2013-01-14 02:49:00,
2013-01-13 18:04:00,27.5,27.3,29.61,WNW,292,0.0,-999.0,99,-99.99,,,0.00,Acu-Link.com,2013-01-14 03:04:00,
2013-01-13 18:19:00,27.7,27.5,29.60,WNW,292,0.0,-999.0,99,-99.99,,,0.00,Acu-Link.com,2013-01-14 03:19:00,
2013-01-13 18:34:00,27.9,27.7,29.60,WNW,292,0.0,-999.0,99,-99.99,,,0.00,Acu-Link.com,2013-01-14 03:34:00,
2013-01-13 18:49:00,28.0,27.8,29.60,WNW,292,0.0,-999.0,99,-99.99,,,0.00,Acu-Link.com,2013-01-14 03:49:00,
2013-01-13 19:04:00,28.0,27.8,29.59,WNW,292,0.0,-999.0,99,-99.99,,,0.00,Acu-Link.com,2013-01-14 04:04:00,
2013-01-13 19:19:00,28.6,28.4,29.59,WNW,292,0.0,-999.0,99,-99.99,,,0.00,Acu-Link.com,2013-01-14 04:19:00,
2013-01-13 19:34:00,28.9,28.7,29.61,WSW,247,0.0,-999.0,99,-99.99,,,0.00,Acu-Link.com,2013-01-14 04:34:00,
2013-01-13 19:50:00,28.9,28.7,29.60,WSW,247,0.0,-999.0,99,-99.99,,,0.00,Acu-Link.com,2013-01-14 04:50:00,
2013-01-13 20:05:00,28.8,28.6,29.59,WSW,247,0.0,-999.0,99,-99.99,,,0.00,Acu-Link.com,2013-01-14 05:05:00,
2013-01-13 20:20:00,28.9,28.7,29.59,WSW,247,0.0,-999.0,99,-99.99,,,0.00,Acu-Link.com,2013-01-14 05:20:00,
2013-01-13 20:35:00,29.5,29.3,29.59,WSW,247,0.0,-999.0,99,-99.99,,,0.00,Acu-Link.com,2013-01-14 05:35:00,
2013-01-13 20:50:00,29.8,29.6,29.58,WSW,247,0.0,-999.0,99,-99.99,,,0.00,Acu-Link.com,2013-01-14 05:50:00,
2013-01-13 21:05:00,30.2,30.0,29.58,WSW,247,0.0,-999.0,99,-99.99,,,0.00,Acu-Link.com,2013-01-14 06:05:00,
2013-01-13 21:21:00,30.4,30.2,29.58,WSW,247,0.0,-999.0,99,-99.99,,,0.00,Acu-Link.com,2013-01-14 06:21:00,
2013-01-13 21:36:00,30.6,30.4,29.58,WSW,247,0.0,-999.0,99,-99.99,,,0.00,Acu-Link.com,2013-01-14 06:36:00,
2013-01-13 21:51:00,30.7,30.5,29.59,WSW,247,0.0,-999.0,99,-99.99,,,0.00,Acu-Link.com,2013-01-14 06:51:00,
2013-01-13 22:06:00,30.9,30.7,29.58,WSW,247,0.0,-999.0,99,-99.99,,,0.00,Acu-Link.com,2013-01-14 07:06:00,
2013-01-13 22:21:00,31.1,30.9,29.57,WSW,247,0.0,-999.0,99,-99.99,,,0.00,Acu-Link.com,2013-01-14 07:21:00,
2013-01-13 22:36:00,31.3,31.1,29.55,WSW,247,0.0,-999.0,99,-99.99,,,0.00,Acu-Link.com,2013-01-14 07:36:00,
2013-01-13 22:51:00,31.3,31.1,29.55,WSW,247,0.0,-999.0,99,-99.99,,,0.00,Acu-Link.com,2013-01-14 07:51:00,
2013-01-13 23:06:00,31.3,31.1,29.56,WSW,247,0.0,-999.0,99,-99.99,,,0.00,Acu-Link.com,2013-01-14 08:06:00,
2013-01-13 23:21:00,31.3,31.1,29.55,WSW,247,0.0,-999.0,99,-99.99,,,0.00,Acu-Link.com,2013-01-14 08:21:00,
2013-01-13 23:37:00,31.3,31.1,29.54,WSW,247,0.0,-999.0,99,-99.99,,,0.00,Acu-Link.com,2013-01-14 08:37:00,
2013-01-13 23:52:00,31.3,31.1,29.53,WSW,247,0.0,-999.0,99,-99.99,,,0.00,Acu-Link.com,2013-01-14 08:52:00,